sensor_id;sensor_type;location;lat;lon;timestamp;temperature;humidity
16523;DHT22;19889;52.546;13.348;2022-08-21T00:00:18;21.10;99.90
16523;DHT22;19889;52.546;13.348;2022-08-21T00:02:47;21.10;99.90
16523;DHT22;19889;52.546;13.348;2022-08-21T00:05:16;21.10;99.90
16523;DHT22;19889;52.546;13.348;2022-08-21T00:07:43;21.00;99.90
16523;DHT22;19889;52.546;13.348;2022-08-21T00:10:11;21.10;99.90
16523;DHT22;19889;52.546;13.348;2022-08-21T00:12:40;21.10;99.90
16523;DHT22;19889;52.546;13.348;2022-08-21T00:15:10;21.00;99.90
16523;DHT22;19889;52.546;13.348;2022-08-21T00:17:37;21.00;99.90
16523;DHT22;19889;52.546;13.348;2022-08-21T00:20:06;21.00;99.90
16523;DHT22;19889;52.546;13.348;2022-08-21T00:22:34;21.00;99.90
16523;DHT22;19889;52.546;13.348;2022-08-21T00:25:01;21.00;99.90
16523;DHT22;19889;52.546;13.348;2022-08-21T00:27:28;21.00;99.90
16523;DHT22;19889;52.546;13.348;2022-08-21T00:29:56;21.10;99.90
16523;DHT22;19889;52.546;13.348;2022-08-21T00:32:24;21.00;99.90
16523;DHT22;19889;52.546;13.348;2022-08-21T00:34:51;21.00;99.90
16523;DHT22;19889;52.546;13.348;2022-08-21T00:37:19;20.80;99.90
16523;DHT22;19889;52.546;13.348;2022-08-21T00:39:46;21.00;99.90
16523;DHT22;19889;52.546;13.348;2022-08-21T00:42:14;21.00;99.90
16523;DHT22;19889;52.546;13.348;2022-08-21T00:44:41;20.90;99.90
16523;DHT22;19889;52.546;13.348;2022-08-21T00:47:10;20.90;99.90
16523;DHT22;19889;52.546;13.348;2022-08-21T00:49:38;20.90;99.90
16523;DHT22;19889;52.546;13.348;2022-08-21T00:52:08;20.90;99.90
16523;DHT22;19889;52.546;13.348;2022-08-21T00:54:36;20.90;99.90
16523;DHT22;19889;52.546;13.348;2022-08-21T00:59:36;20.80;99.90
16523;DHT22;19889;52.546;13.348;2022-08-21T01:02:07;20.90;99.90
16523;DHT22;19889;52.546;13.348;2022-08-21T01:04:36;20.80;99.90
16523;DHT22;19889;52.546;13.348;2022-08-21T01:07:03;20.80;99.90
16523;DHT22;19889;52.546;13.348;2022-08-21T01:09:31;20.80;99.90
16523;DHT22;19889;52.546;13.348;2022-08-21T01:11:58;20.80;99.90
16523;DHT22;19889;52.546;13.348;2022-08-21T01:14:25;20.80;99.90
16523;DHT22;19889;52.546;13.348;2022-08-21T01:16:52;20.70;99.90
16523;DHT22;19889;52.546;13.348;2022-08-21T01:19:21;20.70;99.90
16523;DHT22;19889;52.546;13.348;2022-08-21T01:21:49;20.70;99.90
16523;DHT22;19889;52.546;13.348;2022-08-21T01:24:16;20.70;99.90
16523;DHT22;19889;52.546;13.348;2022-08-21T01:26:44;20.70;99.90
16523;DHT22;19889;52.546;13.348;2022-08-21T01:29:15;20.70;99.90
16523;DHT22;19889;52.546;13.348;2022-08-21T01:31:43;20.70;99.90
16523;DHT22;19889;52.546;13.348;2022-08-21T01:34:11;20.70;99.90
16523;DHT22;19889;52.546;13.348;2022-08-21T01:36:38;20.60;99.90
16523;DHT22;19889;52.546;13.348;2022-08-21T01:39:06;20.60;99.90
16523;DHT22;19889;52.546;13.348;2022-08-21T01:41:33;20.60;99.90
16523;DHT22;19889;52.546;13.348;2022-08-21T01:44:00;20.60;99.90
16523;DHT22;19889;52.546;13.348;2022-08-21T01:46:27;20.60;99.90
16523;DHT22;19889;52.546;13.348;2022-08-21T01:48:54;20.50;99.90
16523;DHT22;19889;52.546;13.348;2022-08-21T01:51:21;20.50;99.90
16523;DHT22;19889;52.546;13.348;2022-08-21T01:53:47;20.50;99.90
16523;DHT22;19889;52.546;13.348;2022-08-21T01:56:16;20.50;99.90
16523;DHT22;19889;52.546;13.348;2022-08-21T01:58:46;20.50;99.90
16523;DHT22;19889;52.546;13.348;2022-08-21T02:01:13;20.50;99.90
16523;DHT22;19889;52.546;13.348;2022-08-21T02:03:40;20.50;99.90
16523;DHT22;19889;52.546;13.348;2022-08-21T02:06:13;20.40;99.90
16523;DHT22;19889;52.546;13.348;2022-08-21T02:08:40;20.40;99.90
16523;DHT22;19889;52.546;13.348;2022-08-21T02:11:07;20.40;99.90
16523;DHT22;19889;52.546;13.348;2022-08-21T02:13:35;20.40;99.90
16523;DHT22;19889;52.546;13.348;2022-08-21T02:16:02;21.10;99.90
16523;DHT22;19889;52.546;13.348;2022-08-21T02:18:29;20.40;99.90
16523;DHT22;19889;52.546;13.348;2022-08-21T02:20:56;20.30;99.90
16523;DHT22;19889;52.546;13.348;2022-08-21T02:23:24;20.30;99.90
16523;DHT22;19889;52.546;13.348;2022-08-21T02:25:50;21.40;99.90
16523;DHT22;19889;52.546;13.348;2022-08-21T02:28:17;20.30;99.90
16523;DHT22;19889;52.546;13.348;2022-08-21T02:30:47;20.30;99.90
16523;DHT22;19889;52.546;13.348;2022-08-21T02:33:14;20.20;99.90
16523;DHT22;19889;52.546;13.348;2022-08-21T02:35:43;20.20;99.90
16523;DHT22;19889;52.546;13.348;2022-08-21T02:38:12;20.10;99.90
16523;DHT22;19889;52.546;13.348;2022-08-21T02:40:42;20.10;99.90
16523;DHT22;19889;52.546;13.348;2022-08-21T02:43:10;20.10;99.90
16523;DHT22;19889;52.546;13.348;2022-08-21T02:45:39;20.10;99.90
16523;DHT22;19889;52.546;13.348;2022-08-21T02:48:09;20.10;99.90
16523;DHT22;19889;52.546;13.348;2022-08-21T02:50:39;20.10;99.90
16523;DHT22;19889;52.546;13.348;2022-08-21T02:53:07;20.00;99.90
16523;DHT22;19889;52.546;13.348;2022-08-21T02:55:35;20.00;99.90
16523;DHT22;19889;52.546;13.348;2022-08-21T02:58:06;20.00;99.90
16523;DHT22;19889;52.546;13.348;2022-08-21T03:00:34;19.90;99.90
16523;DHT22;19889;52.546;13.348;2022-08-21T03:03:04;19.90;99.90
16523;DHT22;19889;52.546;13.348;2022-08-21T03:05:34;19.90;99.90
16523;DHT22;19889;52.546;13.348;2022-08-21T03:08:04;19.90;99.90
16523;DHT22;19889;52.546;13.348;2022-08-21T03:10:32;19.90;99.90
16523;DHT22;19889;52.546;13.348;2022-08-21T03:12:59;19.90;99.90
16523;DHT22;19889;52.546;13.348;2022-08-21T03:15:27;19.90;99.90
16523;DHT22;19889;52.546;13.348;2022-08-21T03:17:54;19.90;99.90
16523;DHT22;19889;52.546;13.348;2022-08-21T03:20:23;19.80;99.90
16523;DHT22;19889;52.546;13.348;2022-08-21T03:22:52;19.80;99.90
16523;DHT22;19889;52.546;13.348;2022-08-21T03:25:20;19.80;99.90
16523;DHT22;19889;52.546;13.348;2022-08-21T03:27:47;19.80;99.90
16523;DHT22;19889;52.546;13.348;2022-08-21T03:30:16;19.80;99.90
16523;DHT22;19889;52.546;13.348;2022-08-21T03:32:43;19.70;99.90
16523;DHT22;19889;52.546;13.348;2022-08-21T03:35:12;19.80;99.90
16523;DHT22;19889;52.546;13.348;2022-08-21T03:37:39;19.70;99.90
16523;DHT22;19889;52.546;13.348;2022-08-21T03:40:13;19.70;99.90
16523;DHT22;19889;52.546;13.348;2022-08-21T03:42:40;19.70;99.90
16523;DHT22;19889;52.546;13.348;2022-08-21T03:45:08;19.70;99.90
16523;DHT22;19889;52.546;13.348;2022-08-21T03:47:35;19.70;99.90
16523;DHT22;19889;52.546;13.348;2022-08-21T03:50:02;19.70;99.90
16523;DHT22;19889;52.546;13.348;2022-08-21T03:52:29;19.70;99.90
16523;DHT22;19889;52.546;13.348;2022-08-21T03:54:56;19.70;99.90
16523;DHT22;19889;52.546;13.348;2022-08-21T03:57:24;19.60;99.90
16523;DHT22;19889;52.546;13.348;2022-08-21T03:59:51;19.60;99.90
16523;DHT22;19889;52.546;13.348;2022-08-21T04:02:20;19.60;99.90
16523;DHT22;19889;52.546;13.348;2022-08-21T04:04:47;19.60;99.90
16523;DHT22;19889;52.546;13.348;2022-08-21T04:07:14;19.50;99.90
16523;DHT22;19889;52.546;13.348;2022-08-21T04:09:41;19.50;99.90
16523;DHT22;19889;52.546;13.348;2022-08-21T04:12:08;19.50;99.90
16523;DHT22;19889;52.546;13.348;2022-08-21T04:14:36;19.50;99.90
16523;DHT22;19889;52.546;13.348;2022-08-21T04:17:03;19.50;99.90
16523;DHT22;19889;52.546;13.348;2022-08-21T04:19:30;19.50;99.90
16523;DHT22;19889;52.546;13.348;2022-08-21T04:21:57;19.60;99.90
16523;DHT22;19889;52.546;13.348;2022-08-21T04:24:24;19.50;99.90
16523;DHT22;19889;52.546;13.348;2022-08-21T04:26:51;19.50;99.90
16523;DHT22;19889;52.546;13.348;2022-08-21T04:29:18;19.40;99.90
16523;DHT22;19889;52.546;13.348;2022-08-21T04:31:46;19.50;99.90
16523;DHT22;19889;52.546;13.348;2022-08-21T04:34:13;19.40;99.90
16523;DHT22;19889;52.546;13.348;2022-08-21T04:36:40;19.50;99.90
16523;DHT22;19889;52.546;13.348;2022-08-21T04:39:06;19.40;99.90
16523;DHT22;19889;52.546;13.348;2022-08-21T04:41:33;19.40;99.90
16523;DHT22;19889;52.546;13.348;2022-08-21T04:44:02;19.50;99.90
16523;DHT22;19889;52.546;13.348;2022-08-21T04:46:29;19.40;99.90
16523;DHT22;19889;52.546;13.348;2022-08-21T04:48:57;19.40;99.90
16523;DHT22;19889;52.546;13.348;2022-08-21T04:51:28;19.40;99.90
16523;DHT22;19889;52.546;13.348;2022-08-21T04:53:59;19.40;99.90
16523;DHT22;19889;52.546;13.348;2022-08-21T04:56:31;19.40;99.90
16523;DHT22;19889;52.546;13.348;2022-08-21T04:59:03;19.40;99.90
16523;DHT22;19889;52.546;13.348;2022-08-21T05:01:33;19.50;99.90
16523;DHT22;19889;52.546;13.348;2022-08-21T05:04:04;19.50;99.90
16523;DHT22;19889;52.546;13.348;2022-08-21T05:06:36;19.50;99.90
16523;DHT22;19889;52.546;13.348;2022-08-21T05:09:04;19.50;99.90
16523;DHT22;19889;52.546;13.348;2022-08-21T05:11:31;19.50;99.90
16523;DHT22;19889;52.546;13.348;2022-08-21T05:13:58;19.50;99.90
16523;DHT22;19889;52.546;13.348;2022-08-21T05:16:25;19.60;99.90
16523;DHT22;19889;52.546;13.348;2022-08-21T05:18:53;19.60;99.90
16523;DHT22;19889;52.546;13.348;2022-08-21T05:21:21;19.50;99.90
16523;DHT22;19889;52.546;13.348;2022-08-21T05:23:48;19.50;99.90
16523;DHT22;19889;52.546;13.348;2022-08-21T05:26:14;19.50;99.90
16523;DHT22;19889;52.546;13.348;2022-08-21T05:28:41;19.50;99.90
16523;DHT22;19889;52.546;13.348;2022-08-21T05:31:08;19.50;99.90
16523;DHT22;19889;52.546;13.348;2022-08-21T05:33:35;19.50;99.90
16523;DHT22;19889;52.546;13.348;2022-08-21T05:36:02;19.50;99.90
16523;DHT22;19889;52.546;13.348;2022-08-21T05:38:30;19.60;99.90
16523;DHT22;19889;52.546;13.348;2022-08-21T05:40:57;19.50;99.90
16523;DHT22;19889;52.546;13.348;2022-08-21T05:43:23;19.50;99.90
16523;DHT22;19889;52.546;13.348;2022-08-21T05:45:50;19.60;99.90
16523;DHT22;19889;52.546;13.348;2022-08-21T05:48:20;19.60;99.90
16523;DHT22;19889;52.546;13.348;2022-08-21T05:50:48;19.70;99.90
16523;DHT22;19889;52.546;13.348;2022-08-21T05:53:17;19.70;99.90
16523;DHT22;19889;52.546;13.348;2022-08-21T05:55:46;19.70;99.90
16523;DHT22;19889;52.546;13.348;2022-08-21T05:58:14;19.70;99.90
16523;DHT22;19889;52.546;13.348;2022-08-21T06:00:42;19.80;99.90
16523;DHT22;19889;52.546;13.348;2022-08-21T06:03:13;19.80;99.90
16523;DHT22;19889;52.546;13.348;2022-08-21T06:05:41;19.80;99.90
16523;DHT22;19889;52.546;13.348;2022-08-21T06:08:07;19.90;99.90
16523;DHT22;19889;52.546;13.348;2022-08-21T06:10:34;19.90;99.90
16523;DHT22;19889;52.546;13.348;2022-08-21T06:13:02;19.90;99.90
16523;DHT22;19889;52.546;13.348;2022-08-21T06:15:30;19.90;99.90
16523;DHT22;19889;52.546;13.348;2022-08-21T06:17:56;19.90;99.90
16523;DHT22;19889;52.546;13.348;2022-08-21T06:20:23;19.90;99.90
16523;DHT22;19889;52.546;13.348;2022-08-21T06:22:51;19.90;99.90
16523;DHT22;19889;52.546;13.348;2022-08-21T06:25:18;19.90;99.90
16523;DHT22;19889;52.546;13.348;2022-08-21T06:27:45;19.90;99.90
16523;DHT22;19889;52.546;13.348;2022-08-21T06:30:14;20.00;99.90
16523;DHT22;19889;52.546;13.348;2022-08-21T06:32:40;20.00;99.90
16523;DHT22;19889;52.546;13.348;2022-08-21T06:35:08;20.00;99.90
16523;DHT22;19889;52.546;13.348;2022-08-21T06:37:35;20.10;99.90
16523;DHT22;19889;52.546;13.348;2022-08-21T06:40:03;20.10;99.90
16523;DHT22;19889;52.546;13.348;2022-08-21T06:42:30;20.10;99.90
16523;DHT22;19889;52.546;13.348;2022-08-21T06:44:57;20.10;99.90
16523;DHT22;19889;52.546;13.348;2022-08-21T06:47:25;20.10;99.90
16523;DHT22;19889;52.546;13.348;2022-08-21T06:49:52;20.20;99.90
16523;DHT22;19889;52.546;13.348;2022-08-21T06:52:18;20.20;99.90
16523;DHT22;19889;52.546;13.348;2022-08-21T06:54:45;20.20;99.90
16523;DHT22;19889;52.546;13.348;2022-08-21T06:57:12;20.30;99.90
16523;DHT22;19889;52.546;13.348;2022-08-21T06:59:39;20.30;99.90
16523;DHT22;19889;52.546;13.348;2022-08-21T07:02:06;20.30;99.90
16523;DHT22;19889;52.546;13.348;2022-08-21T07:04:34;20.40;99.90
16523;DHT22;19889;52.546;13.348;2022-08-21T07:07:01;20.30;99.90
16523;DHT22;19889;52.546;13.348;2022-08-21T07:09:28;20.50;99.90
16523;DHT22;19889;52.546;13.348;2022-08-21T07:11:55;20.50;99.90
16523;DHT22;19889;52.546;13.348;2022-08-21T07:14:23;20.40;99.90
16523;DHT22;19889;52.546;13.348;2022-08-21T07:16:50;20.60;99.90
16523;DHT22;19889;52.546;13.348;2022-08-21T07:19:17;20.60;99.90
16523;DHT22;19889;52.546;13.348;2022-08-21T07:21:46;20.70;99.90
16523;DHT22;19889;52.546;13.348;2022-08-21T07:24:13;20.80;99.90
16523;DHT22;19889;52.546;13.348;2022-08-21T07:26:40;20.70;99.90
16523;DHT22;19889;52.546;13.348;2022-08-21T07:29:07;20.70;99.90
16523;DHT22;19889;52.546;13.348;2022-08-21T07:31:34;20.70;99.90
16523;DHT22;19889;52.546;13.348;2022-08-21T07:34:01;23.20;99.90
16523;DHT22;19889;52.546;13.348;2022-08-21T07:36:28;21.30;99.90
16523;DHT22;19889;52.546;13.348;2022-08-21T07:38:56;20.80;99.90
16523;DHT22;19889;52.546;13.348;2022-08-21T07:41:25;20.90;99.90
16523;DHT22;19889;52.546;13.348;2022-08-21T07:43:55;20.90;99.90
16523;DHT22;19889;52.546;13.348;2022-08-21T07:46:23;21.00;99.90
16523;DHT22;19889;52.546;13.348;2022-08-21T07:48:50;21.00;99.90
16523;DHT22;19889;52.546;13.348;2022-08-21T07:51:18;20.90;99.90
16523;DHT22;19889;52.546;13.348;2022-08-21T07:53:48;21.00;99.90
16523;DHT22;19889;52.546;13.348;2022-08-21T07:56:17;21.00;99.90
16523;DHT22;19889;52.546;13.348;2022-08-21T07:58:44;21.00;99.90
16523;DHT22;19889;52.546;13.348;2022-08-21T08:01:11;21.10;99.90
16523;DHT22;19889;52.546;13.348;2022-08-21T08:03:38;21.10;99.90
16523;DHT22;19889;52.546;13.348;2022-08-21T08:06:05;21.10;99.90
16523;DHT22;19889;52.546;13.348;2022-08-21T08:08:34;21.10;99.90
16523;DHT22;19889;52.546;13.348;2022-08-21T08:11:01;21.10;99.90
16523;DHT22;19889;52.546;13.348;2022-08-21T08:13:29;21.10;99.90
16523;DHT22;19889;52.546;13.348;2022-08-21T08:15:56;21.10;99.90
16523;DHT22;19889;52.546;13.348;2022-08-21T08:18:23;21.10;99.90
16523;DHT22;19889;52.546;13.348;2022-08-21T08:20:50;20.20;99.90
16523;DHT22;19889;52.546;13.348;2022-08-21T08:23:16;21.10;99.90
16523;DHT22;19889;52.546;13.348;2022-08-21T08:25:43;21.10;99.90
16523;DHT22;19889;52.546;13.348;2022-08-21T08:28:10;21.10;99.90
16523;DHT22;19889;52.546;13.348;2022-08-21T08:30:39;21.20;99.90
16523;DHT22;19889;52.546;13.348;2022-08-21T08:33:05;21.30;99.90
16523;DHT22;19889;52.546;13.348;2022-08-21T08:35:32;21.30;99.90
16523;DHT22;19889;52.546;13.348;2022-08-21T08:37:59;21.30;99.90
16523;DHT22;19889;52.546;13.348;2022-08-21T08:40:32;22.00;99.90
16523;DHT22;19889;52.546;13.348;2022-08-21T08:43:01;22.20;99.90
16523;DHT22;19889;52.546;13.348;2022-08-21T08:45:29;21.40;99.90
16523;DHT22;19889;52.546;13.348;2022-08-21T08:48:02;21.50;99.90
16523;DHT22;19889;52.546;13.348;2022-08-21T08:50:40;21.60;99.90
16523;DHT22;19889;52.546;13.348;2022-08-21T08:53:12;21.70;99.90
16523;DHT22;19889;52.546;13.348;2022-08-21T08:55:41;21.70;99.90
16523;DHT22;19889;52.546;13.348;2022-08-21T08:58:09;21.80;99.90
16523;DHT22;19889;52.546;13.348;2022-08-21T09:00:38;21.80;99.90
16523;DHT22;19889;52.546;13.348;2022-08-21T09:03:07;21.90;99.90
16523;DHT22;19889;52.546;13.348;2022-08-21T09:05:40;21.90;99.90
16523;DHT22;19889;52.546;13.348;2022-08-21T09:08:33;21.90;99.90
16523;DHT22;19889;52.546;13.348;2022-08-21T09:11:11;22.00;99.90
16523;DHT22;19889;52.546;13.348;2022-08-21T09:13:50;22.10;99.90
16523;DHT22;19889;52.546;13.348;2022-08-21T09:16:27;22.20;99.90
16523;DHT22;19889;52.546;13.348;2022-08-21T09:19:04;23.20;99.90
16523;DHT22;19889;52.546;13.348;2022-08-21T09:21:41;22.20;99.90
16523;DHT22;19889;52.546;13.348;2022-08-21T09:24:22;22.20;99.90
16523;DHT22;19889;52.546;13.348;2022-08-21T09:27:00;22.20;99.90
16523;DHT22;19889;52.546;13.348;2022-08-21T09:29:31;22.30;99.90
16523;DHT22;19889;52.546;13.348;2022-08-21T09:32:00;22.20;99.90
16523;DHT22;19889;52.546;13.348;2022-08-21T09:34:29;22.20;99.90
16523;DHT22;19889;52.546;13.348;2022-08-21T09:36:57;22.20;99.90
16523;DHT22;19889;52.546;13.348;2022-08-21T09:39:28;22.20;99.90
16523;DHT22;19889;52.546;13.348;2022-08-21T09:41:57;22.20;99.90
16523;DHT22;19889;52.546;13.348;2022-08-21T09:44:27;22.20;99.90
16523;DHT22;19889;52.546;13.348;2022-08-21T09:46:54;22.30;99.90
16523;DHT22;19889;52.546;13.348;2022-08-21T09:49:29;23.10;99.90
16523;DHT22;19889;52.546;13.348;2022-08-21T09:51:57;22.30;99.90
16523;DHT22;19889;52.546;13.348;2022-08-21T09:54:29;23.00;99.90
16523;DHT22;19889;52.546;13.348;2022-08-21T09:56:58;22.40;99.90
16523;DHT22;19889;52.546;13.348;2022-08-21T09:59:44;22.40;99.90
16523;DHT22;19889;52.546;13.348;2022-08-21T10:02:30;22.50;99.90
16523;DHT22;19889;52.546;13.348;2022-08-21T10:05:02;22.50;99.90
16523;DHT22;19889;52.546;13.348;2022-08-21T10:07:31;22.60;99.90
16523;DHT22;19889;52.546;13.348;2022-08-21T10:10:01;22.60;99.90
16523;DHT22;19889;52.546;13.348;2022-08-21T10:12:35;22.60;99.90
16523;DHT22;19889;52.546;13.348;2022-08-21T10:15:11;22.70;99.90
16523;DHT22;19889;52.546;13.348;2022-08-21T10:17:45;22.60;99.90
16523;DHT22;19889;52.546;13.348;2022-08-21T10:20:20;22.60;99.90
16523;DHT22;19889;52.546;13.348;2022-08-21T10:23:01;22.70;99.90
16523;DHT22;19889;52.546;13.348;2022-08-21T10:25:32;22.70;99.90
16523;DHT22;19889;52.546;13.348;2022-08-21T10:28:02;22.70;99.90
16523;DHT22;19889;52.546;13.348;2022-08-21T10:30:37;22.70;99.90
16523;DHT22;19889;52.546;13.348;2022-08-21T10:33:13;22.70;99.90
16523;DHT22;19889;52.546;13.348;2022-08-21T10:35:53;22.80;99.90
16523;DHT22;19889;52.546;13.348;2022-08-21T10:38:46;22.80;99.90
16523;DHT22;19889;52.546;13.348;2022-08-21T10:41:26;22.80;99.90
16523;DHT22;19889;52.546;13.348;2022-08-21T10:44:02;23.40;99.90
16523;DHT22;19889;52.546;13.348;2022-08-21T10:46:41;23.00;99.90
16523;DHT22;19889;52.546;13.348;2022-08-21T10:49:17;23.00;99.90
16523;DHT22;19889;52.546;13.348;2022-08-21T10:51:54;23.00;99.90
16523;DHT22;19889;52.546;13.348;2022-08-21T10:54:28;23.00;99.90
16523;DHT22;19889;52.546;13.348;2022-08-21T10:57:02;23.00;99.90
16523;DHT22;19889;52.546;13.348;2022-08-21T10:59:38;23.00;99.90
16523;DHT22;19889;52.546;13.348;2022-08-21T11:02:15;23.00;99.90
16523;DHT22;19889;52.546;13.348;2022-08-21T11:04:50;23.00;99.90
16523;DHT22;19889;52.546;13.348;2022-08-21T11:07:22;23.00;99.90
16523;DHT22;19889;52.546;13.348;2022-08-21T11:09:55;23.10;99.90
16523;DHT22;19889;52.546;13.348;2022-08-21T11:12:25;23.10;99.90
16523;DHT22;19889;52.546;13.348;2022-08-21T11:14:57;23.10;99.90
16523;DHT22;19889;52.546;13.348;2022-08-21T11:17:31;23.20;99.90
16523;DHT22;19889;52.546;13.348;2022-08-21T11:20:03;23.30;99.90
16523;DHT22;19889;52.546;13.348;2022-08-21T11:22:38;23.90;99.90
16523;DHT22;19889;52.546;13.348;2022-08-21T11:25:11;23.40;99.90
16523;DHT22;19889;52.546;13.348;2022-08-21T11:27:43;25.90;99.90
16523;DHT22;19889;52.546;13.348;2022-08-21T11:30:11;23.40;99.90
16523;DHT22;19889;52.546;13.348;2022-08-21T11:32:49;23.40;99.90
16523;DHT22;19889;52.546;13.348;2022-08-21T11:35:30;23.40;99.90
16523;DHT22;19889;52.546;13.348;2022-08-21T11:38:10;23.40;99.90
16523;DHT22;19889;52.546;13.348;2022-08-21T11:40:48;23.50;99.90
16523;DHT22;19889;52.546;13.348;2022-08-21T11:43:22;23.50;99.90
16523;DHT22;19889;52.546;13.348;2022-08-21T11:45:56;23.50;99.90
16523;DHT22;19889;52.546;13.348;2022-08-21T11:48:36;23.50;99.90
16523;DHT22;19889;52.546;13.348;2022-08-21T11:51:12;23.40;99.90
16523;DHT22;19889;52.546;13.348;2022-08-21T11:53:47;23.40;99.90
16523;DHT22;19889;52.546;13.348;2022-08-21T11:56:19;23.40;99.80
16523;DHT22;19889;52.546;13.348;2022-08-21T11:58:50;23.40;99.80
16523;DHT22;19889;52.546;13.348;2022-08-21T12:01:21;23.40;99.40
16523;DHT22;19889;52.546;13.348;2022-08-21T12:03:55;23.50;98.40
16523;DHT22;19889;52.546;13.348;2022-08-21T12:06:29;23.40;98.40
16523;DHT22;19889;52.546;13.348;2022-08-21T12:09:00;23.40;98.60
16523;DHT22;19889;52.546;13.348;2022-08-21T12:11:27;23.40;98.50
16523;DHT22;19889;52.546;13.348;2022-08-21T12:13:58;23.40;98.50
16523;DHT22;19889;52.546;13.348;2022-08-21T12:16:30;23.40;97.50
16523;DHT22;19889;52.546;13.348;2022-08-21T12:19:05;23.40;97.10
16523;DHT22;19889;52.546;13.348;2022-08-21T12:21:34;23.30;96.80
16523;DHT22;19889;52.546;13.348;2022-08-21T12:24:19;23.30;97.00
16523;DHT22;19889;52.546;13.348;2022-08-21T12:26:52;23.40;97.00
16523;DHT22;19889;52.546;13.348;2022-08-21T12:29:23;23.70;96.90
16523;DHT22;19889;52.546;13.348;2022-08-21T12:31:58;23.50;96.90
16523;DHT22;19889;52.546;13.348;2022-08-21T12:34:32;23.60;96.50
16523;DHT22;19889;52.546;13.348;2022-08-21T12:37:02;23.00;97.20
16523;DHT22;19889;52.546;13.348;2022-08-21T12:39:35;23.30;97.00
16523;DHT22;19889;52.546;13.348;2022-08-21T12:42:06;23.50;96.60
16523;DHT22;19889;52.546;13.348;2022-08-21T12:44:39;23.60;98.30
16523;DHT22;19889;52.546;13.348;2022-08-21T12:47:15;23.40;99.90
16523;DHT22;19889;52.546;13.348;2022-08-21T12:49:54;24.60;99.00
16523;DHT22;19889;52.546;13.348;2022-08-21T12:52:27;23.60;98.20
16523;DHT22;19889;52.546;13.348;2022-08-21T12:54:55;24.50;99.90
16523;DHT22;19889;52.546;13.348;2022-08-21T12:57:24;24.20;99.90
16523;DHT22;19889;52.546;13.348;2022-08-21T12:59:55;23.50;99.90
16523;DHT22;19889;52.546;13.348;2022-08-21T13:02:26;23.60;98.10
16523;DHT22;19889;52.546;13.348;2022-08-21T13:04:56;23.70;97.80
16523;DHT22;19889;52.546;13.348;2022-08-21T13:07:26;23.50;97.60
16523;DHT22;19889;52.546;13.348;2022-08-21T13:09:58;23.50;97.80
16523;DHT22;19889;52.546;13.348;2022-08-21T13:12:27;23.70;97.70
16523;DHT22;19889;52.546;13.348;2022-08-21T13:14:56;23.60;98.10
16523;DHT22;19889;52.546;13.348;2022-08-21T13:17:25;23.50;97.60
16523;DHT22;19889;52.546;13.348;2022-08-21T13:19:54;23.70;97.20
16523;DHT22;19889;52.546;13.348;2022-08-21T13:22:22;23.60;97.20
16523;DHT22;19889;52.546;13.348;2022-08-21T13:24:49;23.70;97.60
16523;DHT22;19889;52.546;13.348;2022-08-21T13:27:22;23.90;97.50
16523;DHT22;19889;52.546;13.348;2022-08-21T13:30:00;23.70;97.70
16523;DHT22;19889;52.546;13.348;2022-08-21T13:32:28;23.80;98.20
16523;DHT22;19889;52.546;13.348;2022-08-21T13:34:58;23.80;99.00
16523;DHT22;19889;52.546;13.348;2022-08-21T13:37:26;23.90;99.40
16523;DHT22;19889;52.546;13.348;2022-08-21T13:39:54;24.00;99.80
16523;DHT22;19889;52.546;13.348;2022-08-21T13:42:22;23.90;99.90
16523;DHT22;19889;52.546;13.348;2022-08-21T13:44:52;23.90;99.90
16523;DHT22;19889;52.546;13.348;2022-08-21T13:47:19;24.20;99.90
16523;DHT22;19889;52.546;13.348;2022-08-21T13:49:49;24.00;99.90
16523;DHT22;19889;52.546;13.348;2022-08-21T13:52:18;24.10;99.90
16523;DHT22;19889;52.546;13.348;2022-08-21T13:54:53;23.90;99.90
16523;DHT22;19889;52.546;13.348;2022-08-21T13:57:27;23.90;99.90
16523;DHT22;19889;52.546;13.348;2022-08-21T14:00:11;23.90;99.90
16523;DHT22;19889;52.546;13.348;2022-08-21T14:02:41;23.90;99.90
16523;DHT22;19889;52.546;13.348;2022-08-21T14:05:16;23.90;99.90
16523;DHT22;19889;52.546;13.348;2022-08-21T14:07:45;23.90;99.90
16523;DHT22;19889;52.546;13.348;2022-08-21T14:10:18;23.90;99.90
16523;DHT22;19889;52.546;13.348;2022-08-21T14:12:50;23.90;99.90
16523;DHT22;19889;52.546;13.348;2022-08-21T14:15:23;23.90;99.90
16523;DHT22;19889;52.546;13.348;2022-08-21T14:17:51;23.80;99.90
16523;DHT22;19889;52.546;13.348;2022-08-21T14:20:28;24.00;99.90
16523;DHT22;19889;52.546;13.348;2022-08-21T14:22:55;23.80;99.90
16523;DHT22;19889;52.546;13.348;2022-08-21T14:25:30;23.70;99.90
16523;DHT22;19889;52.546;13.348;2022-08-21T14:28:13;23.70;99.90
16523;DHT22;19889;52.546;13.348;2022-08-21T14:30:43;23.70;99.90
16523;DHT22;19889;52.546;13.348;2022-08-21T14:33:13;23.70;99.90
16523;DHT22;19889;52.546;13.348;2022-08-21T14:35:43;23.70;99.90
16523;DHT22;19889;52.546;13.348;2022-08-21T14:38:14;23.70;99.90
16523;DHT22;19889;52.546;13.348;2022-08-21T14:40:41;23.70;99.90
16523;DHT22;19889;52.546;13.348;2022-08-21T14:43:10;23.70;99.90
16523;DHT22;19889;52.546;13.348;2022-08-21T14:45:37;23.50;99.90
16523;DHT22;19889;52.546;13.348;2022-08-21T14:48:06;23.70;99.90
16523;DHT22;19889;52.546;13.348;2022-08-21T14:50:33;23.70;99.90
16523;DHT22;19889;52.546;13.348;2022-08-21T14:53:01;23.50;99.90
16523;DHT22;19889;52.546;13.348;2022-08-21T14:55:29;23.60;99.90
16523;DHT22;19889;52.546;13.348;2022-08-21T14:57:56;23.60;99.90
16523;DHT22;19889;52.546;13.348;2022-08-21T15:00:25;23.50;99.90
16523;DHT22;19889;52.546;13.348;2022-08-21T15:02:52;23.90;99.90
16523;DHT22;19889;52.546;13.348;2022-08-21T15:05:19;23.70;99.90
16523;DHT22;19889;52.546;13.348;2022-08-21T15:07:46;23.70;99.90
16523;DHT22;19889;52.546;13.348;2022-08-21T15:10:13;23.60;99.90
16523;DHT22;19889;52.546;13.348;2022-08-21T15:12:40;23.70;99.90
16523;DHT22;19889;52.546;13.348;2022-08-21T15:15:07;23.70;99.90
16523;DHT22;19889;52.546;13.348;2022-08-21T15:17:37;23.70;99.90
16523;DHT22;19889;52.546;13.348;2022-08-21T15:20:04;23.70;99.90
16523;DHT22;19889;52.546;13.348;2022-08-21T15:22:33;23.70;99.90
16523;DHT22;19889;52.546;13.348;2022-08-21T15:25:00;23.70;99.90
16523;DHT22;19889;52.546;13.348;2022-08-21T15:27:28;23.70;99.90
16523;DHT22;19889;52.546;13.348;2022-08-21T15:29:55;23.60;99.90
16523;DHT22;19889;52.546;13.348;2022-08-21T15:32:24;23.60;99.90